Time;durP1;ratioP1;P1;durP2;ratioP2;P2;SDS_P1;SDS_P2;PMS_P1;PMS_P2;Temp;Humidity;BMP_temperature;BMP_pressure;BME280_temperature;BME280_humidity;BME280_pressure;Samples;Min_cycle;Max_cycle;Signal;HPM_P1;HPM_P2
2022/08/25 00:01:57;;;;;;;4.50;3.22;;;;;;;20.35;55.74;100764.95;1573307;88;21074;-67
2022/08/25 00:04:25;;;;;;;5.15;3.40;;;;;;;20.26;56.58;100758.28;1598734;88;21551;-69
2022/08/25 00:06:54;;;;;;;11.93;3.75;;;;;;;20.17;57.37;100762.44;1578398;89;21088;-67
2022/08/25 00:09:24;;;;;;;6.78;3.05;;;;;;;20.07;58.22;100756.30;1577968;89;21480;-68
2022/08/25 00:11:50;;;;;;;9.58;2.90;;;;;;;19.98;58.58;100761.26;1572111;90;21025;-72
2022/08/25 00:14:22;;;;;;;7.85;3.20;;;;;;;19.86;57.99;100759.68;1580937;88;21011;-68
2022/08/25 00:16:49;;;;;;;4.53;2.65;;;;;;;19.83;58.57;100760.45;1593051;88;21010;-67
2022/08/25 00:19:21;;;;;;;5.87;3.08;;;;;;;19.87;58.70;100768.88;1600097;88;21015;-68
2022/08/25 00:21:48;;;;;;;11.12;3.00;;;;;;;19.83;59.49;100763.16;1583336;88;21087;-68
2022/08/25 00:24:17;;;;;;;4.40;2.52;;;;;;;19.76;59.16;100763.81;1610561;87;21051;-67
2022/08/25 00:26:47;;;;;;;8.58;3.55;;;;;;;19.74;59.76;100762.39;1607230;87;21038;-69
2022/08/25 00:29:14;;;;;;;5.30;3.20;;;;;;;19.70;60.79;100774.18;1598712;88;21101;-67
2022/08/25 00:31:41;;;;;;;4.40;2.87;;;;;;;19.62;61.75;100763.74;1613481;87;20994;-68
2022/08/25 00:34:13;;;;;;;5.72;3.02;;;;;;;19.54;62.09;100762.23;1593490;89;20970;-68
2022/08/25 00:36:39;;;;;;;11.57;4.05;;;;;;;19.48;63.01;100764.54;1619672;87;21099;-67
2022/08/25 00:39:07;;;;;;;;;;;;;;;19.42;63.28;100765.47;1608751;88;21137;-69
2022/08/25 00:41:34;;;;;;;5.00;2.58;;;;;;;19.40;59.32;100761.67;1605396;87;20120;-66
2022/08/25 00:44:05;;;;;;;9.08;3.20;;;;;;;19.42;62.53;100763.61;1607591;87;21148;-68
2022/08/25 00:46:36;;;;;;;5.75;3.10;;;;;;;19.40;62.76;100764.88;1606314;87;21093;-72
2022/08/25 00:49:18;;;;;;;8.23;3.75;;;;;;;19.35;63.57;100763.44;1619199;87;21046;-68
2022/08/25 00:51:50;;;;;;;8.05;2.72;;;;;;;19.30;64.41;100768.72;1614191;87;21526;-68
2022/08/25 00:54:24;;;;;;;5.90;3.00;;;;;;;19.22;64.81;100761.25;1599421;87;21173;-68
2022/08/25 00:56:51;;;;;;;6.65;3.05;;;;;;;19.18;64.47;100764.67;1583206;88;21038;-68
2022/08/25 00:59:21;;;;;;;4.70;2.80;;;;;;;19.16;63.51;100766.26;1622183;87;21361;-68
2022/08/25 01:01:50;;;;;;;7.83;3.30;;;;;;;19.15;65.20;100768.66;1577744;87;21061;-70
2022/08/25 01:04:19;;;;;;;6.40;3.05;;;;;;;19.11;65.50;100764.78;1561904;90;21043;-68
2022/08/25 01:06:48;;;;;;;8.45;2.50;;;;;;;19.10;65.44;100768.55;1589341;90;21085;-68
2022/08/25 01:09:15;;;;;;;9.73;3.05;;;;;;;19.12;65.34;100765.09;1570656;89;21050;-67
2022/08/25 01:11:45;;;;;;;6.25;2.85;;;;;;;19.18;65.11;100766.03;1567648;88;21037;-68
2022/08/25 01:14:17;;;;;;;6.35;3.08;;;;;;;19.24;64.67;100759.67;1580765;88;21090;-68
2022/08/25 01:16:43;;;;;;;5.87;3.05;;;;;;;19.31;64.49;100760.38;1546466;90;21113;-72
2022/08/25 01:19:14;;;;;;;6.47;2.80;;;;;;;19.35;64.38;100763.44;1567597;89;21092;-67
2022/08/25 01:21:48;;;;;;;7.53;3.05;;;;;;;19.36;64.51;100761.02;1580354;88;21120;-68
2022/08/25 01:24:38;;;;;;;8.08;3.50;;;;;;;19.36;64.64;100763.18;1562555;90;21080;-69
2022/08/25 01:27:06;;;;;;;3.72;3.17;;;;;;;19.32;64.70;100763.90;1603897;87;21044;-68
2022/08/25 01:29:34;;;;;;;7.83;3.30;;;;;;;19.29;65.37;100765.71;1624240;87;21138;-69
2022/08/25 01:32:05;;;;;;;5.75;3.05;;;;;;;19.23;65.66;100761.56;1611145;87;21059;-67
2022/08/25 01:34:39;;;;;;;2.98;2.62;;;;;;;19.16;66.16;100756.80;1597075;87;21766;-70
2022/08/25 01:37:07;;;;;;;8.03;3.35;;;;;;;19.09;66.17;100762.03;1601213;87;21045;-68
2022/08/25 01:39:35;;;;;;;6.65;3.85;;;;;;;19.02;66.73;100766.18;1601080;88;21064;-68
2022/08/25 01:42:10;;;;;;;11.88;3.72;;;;;;;18.95;66.70;100762.77;1592590;88;21098;-68
2022/08/25 01:44:44;;;;;;;4.65;3.30;;;;;;;18.90;67.22;100768.87;1591545;87;21053;-71
2022/08/25 01:47:14;;;;;;;6.47;3.83;;;;;;;18.85;67.59;100758.79;1595399;87;21053;-67
2022/08/25 01:49:41;;;;;;;5.47;3.40;;;;;;;18.82;68.04;100767.88;1607498;87;21585;-69
2022/08/25 01:52:34;;;;;;;8.50;3.27;;;;;;;18.76;68.34;100762.00;1601917;87;20982;-68
2022/08/25 01:55:00;;;;;;;6.87;3.02;;;;;;;18.72;67.42;100765.70;1561821;89;21108;-67
2022/08/25 01:57:30;;;;;;;8.33;3.62;;;;;;;18.72;68.63;100767.05;1597473;88;21002;-67
2022/08/25 01:59:57;;;;;;;8.20;3.47;;;;;;;18.67;68.90;100766.94;1587684;88;21518;-69
2022/08/25 02:02:24;;;;;;;6.42;3.47;;;;;;;18.61;68.98;100768.69;1587740;88;21502;-68
2022/08/25 02:04:50;;;;;;;8.48;3.42;;;;;;;18.56;69.48;100765.03;1588833;88;21549;-68
2022/08/25 02:07:19;;;;;;;3.75;3.12;;;;;;;18.52;69.44;100766.02;1596583;88;21038;-67
2022/08/25 02:09:45;;;;;;;7.35;3.65;;;;;;;18.49;70.00;100768.63;1590513;88;21050;-67
2022/08/25 02:12:12;;;;;;;5.53;3.15;;;;;;;18.48;69.80;100768.35;1595013;87;21486;-67
2022/08/25 02:14:39;;;;;;;6.35;3.90;;;;;;;18.48;70.03;100774.28;1596229;88;21078;-67
2022/08/25 02:17:07;;;;;;;5.83;4.20;;;;;;;18.45;69.79;100774.20;1586988;88;21083;-69
2022/08/25 02:19:34;;;;;;;4.05;3.27;;;;;;;18.44;69.16;100771.22;1582146;88;21104;-67
2022/08/25 02:22:01;;;;;;;8.28;3.10;;;;;;;18.44;69.46;100769.88;1591730;88;21088;-67
2022/08/25 02:24:29;;;;;;;4.78;3.30;;;;;;;18.43;69.44;100769.56;1580343;88;21683;-67
2022/08/25 02:26:57;;;;;;;4.28;3.12;;;;;;;18.45;69.63;100767.98;1595871;88;21135;-68
2022/08/25 02:29:23;;;;;;;5.62;3.30;;;;;;;18.47;69.56;100768.58;1597752;88;21006;-68
2022/08/25 02:31:50;;;;;;;7.60;3.67;;;;;;;18.49;69.51;100771.33;1582002;88;21627;-68
2022/08/25 02:34:17;;;;;;;4.70;3.33;;;;;;;18.49;69.65;100771.33;1586233;88;21058;-70
2022/08/25 02:36:43;;;;;;;8.23;3.80;;;;;;;18.48;69.46;100772.41;1577006;88;21069;-68
2022/08/25 02:39:12;;;;;;;13.10;3.67;;;;;;;18.45;69.62;100776.90;1576523;88;21066;-67
2022/08/25 02:41:38;;;;;;;6.65;3.50;;;;;;;18.43;69.74;100770.09;1591178;88;21131;-67
2022/08/25 02:44:06;;;;;;;8.03;3.60;;;;;;;18.41;69.42;100763.57;1582479;88;21039;-69
2022/08/25 02:46:32;;;;;;;4.03;3.62;;;;;;;18.41;69.83;100766.80;1591354;88;21053;-69
2022/08/25 02:48:59;;;;;;;5.83;3.10;;;;;;;18.39;70.01;100775.66;1593488;88;21078;-68
2022/08/25 02:51:30;;;;;;;5.35;3.70;;;;;;;18.33;70.12;100769.30;1597861;88;21127;-69
2022/08/25 02:54:00;;;;;;;9.03;3.30;;;;;;;18.30;70.28;100769.75;1590199;88;21135;-68
2022/08/25 02:56:29;;;;;;;5.58;3.17;;;;;;;18.25;70.90;100763.70;1587468;88;21574;-69
2022/08/25 02:58:57;;;;;;;4.00;3.22;;;;;;;18.20;71.45;100770.84;1594092;88;21578;-69
2022/08/25 03:01:23;;;;;;;6.10;3.77;;;;;;;18.18;71.64;100774.30;1584351;88;21954;-69
2022/08/25 03:03:51;;;;;;;5.60;3.98;;;;;;;18.15;71.77;100767.46;1587994;88;21075;-68
2022/08/25 03:06:22;;;;;;;4.45;3.60;;;;;;;18.13;71.91;100779.00;1589363;88;21039;-68
2022/08/25 03:08:48;;;;;;;10.13;3.50;;;;;;;18.09;72.12;100771.89;1592606;88;21482;-67
2022/08/25 03:11:14;;;;;;;9.05;3.75;;;;;;;18.06;71.54;100776.41;1580755;88;21115;-68
2022/08/25 03:13:41;;;;;;;8.13;3.58;;;;;;;18.07;71.79;100775.34;1591407;88;21142;-69
2022/08/25 03:16:09;;;;;;;5.10;3.02;;;;;;;18.08;72.18;100772.95;1580659;88;21031;-67
2022/08/25 03:18:38;;;;;;;7.00;4.10;;;;;;;18.10;72.32;100772.70;1598800;88;21046;-67
2022/08/25 03:21:04;;;;;;;10.65;4.00;;;;;;;18.16;72.51;100773.16;1589965;88;21030;-67
2022/08/25 03:23:30;;;;;;;;;;;;;;;18.26;72.65;100765.87;1594722;88;21026;-67
2022/08/25 03:28:42;;;;;;;5.40;3.05;;;;;;;18.47;71.99;100768.04;1577795;88;21042;-70
2022/08/25 03:31:09;;;;;;;8.08;3.83;;;;;;;18.66;71.13;100767.98;1594984;88;21092;-66
2022/08/25 03:33:37;;;;;;;6.85;2.80;;;;;;;18.87;70.91;100773.39;1586491;88;21082;-68
2022/08/25 03:36:05;;;;;;;6.30;4.70;;;;;;;19.10;69.21;100777.17;1592895;88;21107;-67
2022/08/25 03:38:32;;;;;;;8.08;5.05;;;;;;;19.33;68.50;100770.96;1595900;88;21502;-68
2022/08/25 03:41:01;;;;;;;13.45;6.53;;;;;;;19.63;67.41;100778.92;1594776;88;21058;-68
2022/08/25 03:43:27;;;;;;;8.40;3.67;;;;;;;19.99;66.80;100783.75;1599871;88;21007;-68
2022/08/25 03:45:53;;;;;;;;;;;;;;;20.37;65.45;100772.83;1591800;88;21103;-67
2022/08/25 03:48:19;;;;;;;4.83;3.83;;;;;;;20.76;63.61;100768.41;1591826;88;20130;-67
2022/08/25 03:50:48;;;;;;;;;;;;;;;21.04;62.84;100758.55;1601201;88;21030;-68
2022/08/25 03:53:15;;;;;;;12.47;4.50;;;;;;;21.38;61.65;100758.50;1588316;88;20156;-67
2022/08/25 03:55:41;;;;;;;9.70;3.40;;;;;;;21.72;60.17;100772.81;1570431;88;21147;-69
2022/08/25 03:58:08;;;;;;;5.37;2.87;;;;;;;22.13;58.68;100777.89;1580101;88;21114;-68
2022/08/25 04:00:34;;;;;;;3.67;3.33;;;;;;;22.49;56.52;100757.91;1588357;88;21589;-66
2022/08/25 04:03:01;;;;;;;4.30;3.10;;;;;;;22.79;54.75;100760.08;1592056;88;21078;-67
2022/08/25 04:05:27;;;;;;;4.08;3.00;;;;;;;22.97;53.61;100763.48;1582747;88;21114;-68
2022/08/25 04:07:54;;;;;;;7.60;4.10;;;;;;;23.20;52.28;100770.47;1604591;83;21133;-68
2022/08/25 04:10:22;;;;;;;5.30;2.67;;;;;;;23.46;52.02;100758.66;1608166;87;21648;-71
2022/08/25 04:12:48;;;;;;;7.35;3.30;;;;;;;23.90;50.32;100756.14;1637382;84;21062;-67
2022/08/25 04:15:14;;;;;;;9.50;4.03;;;;;;;24.21;49.46;100753.52;1650891;84;21102;-69
2022/08/25 04:17:40;;;;;;;4.72;3.10;;;;;;;24.55;48.65;100756.59;1653696;85;21110;-69
2022/08/25 04:20:10;;;;;;;6.97;3.15;;;;;;;24.98;47.82;100753.03;1655442;85;21022;-70
2022/08/25 04:22:38;;;;;;;5.60;3.90;;;;;;;25.33;45.95;100734.97;1646430;82;21003;-68
2022/08/25 04:25:06;;;;;;;8.23;4.25;;;;;;;25.48;45.15;100754.57;1662484;85;21078;-72
2022/08/25 04:27:32;;;;;;;5.53;3.08;;;;;;;25.59;45.08;100746.62;1689244;84;21157;-68
2022/08/25 04:29:59;;;;;;;6.75;3.33;;;;;;;25.92;44.45;100738.87;1665709;84;21450;-69
2022/08/25 04:32:25;;;;;;;10.48;3.45;;;;;;;26.26;43.46;100737.27;1683180;84;21080;-68
2022/08/25 04:34:51;;;;;;;8.48;3.08;;;;;;;26.59;42.79;100737.88;1688462;84;21009;-67
2022/08/25 04:37:18;;;;;;;4.78;2.83;;;;;;;26.95;41.56;100734.81;1683272;84;21025;-68
2022/08/25 04:39:44;;;;;;;7.92;3.25;;;;;;;27.24;41.50;100729.89;1681687;81;21641;-68
2022/08/25 04:42:10;;;;;;;7.67;3.83;;;;;;;27.54;39.92;100732.04;1681147;84;21094;-66
2022/08/25 04:44:38;;;;;;;15.53;3.45;;;;;;;27.57;39.71;100723.22;1678559;83;20979;-68
2022/08/25 04:47:04;;;;;;;9.25;3.20;;;;;;;27.61;39.46;100723.45;1657633;83;21130;-68
2022/08/25 04:49:31;;;;;;;6.25;2.98;;;;;;;27.71;38.87;100726.08;1658063;85;21147;-69
2022/08/25 04:51:58;;;;;;;6.55;3.15;;;;;;;27.92;38.47;100721.97;1650493;85;21375;-68
2022/08/25 04:54:24;;;;;;;5.97;2.42;;;;;;;28.17;38.45;100724.63;1647977;86;21063;-68
2022/08/25 04:56:51;;;;;;;10.35;3.75;;;;;;;28.39;36.88;100724.00;1606082;86;21045;-69
2022/08/25 04:59:18;;;;;;;4.12;3.27;;;;;;;28.53;36.44;100730.39;1624175;86;21541;-68
2022/08/25 05:01:46;;;;;;;6.17;3.15;;;;;;;28.57;36.19;100725.12;1633027;86;20978;-67
2022/08/25 05:04:15;;;;;;;7.20;5.92;;;;;;;28.56;36.63;100720.73;1645486;83;21090;-68
2022/08/25 05:06:43;;;;;;;7.83;4.12;;;;;;;28.69;36.18;100722.73;1614007;85;21539;-68
2022/08/25 05:09:10;;;;;;;4.40;2.98;;;;;;;28.86;36.18;100714.73;1592302;87;21519;-70
2022/08/25 05:11:37;;;;;;;4.55;3.12;;;;;;;29.06;35.31;100720.95;1628203;82;21032;-69
2022/08/25 05:14:10;;;;;;;4.67;3.05;;;;;;;29.18;34.83;100717.19;1648822;86;21360;-68
2022/08/25 05:16:32;;;;;;;5.97;3.17;;;;;;;29.44;34.44;100709.79;1652830;85;21040;-70
2022/08/25 05:18:58;;;;;;;3.40;3.05;;;;;;;29.67;33.56;100717.00;1646016;82;21102;-70
2022/08/25 05:21:28;;;;;;;5.42;3.80;;;;;;;29.74;33.00;100702.05;1639729;85;20999;-69
2022/08/25 05:23:59;;;;;;;5.33;3.30;;;;;;;29.79;32.39;100711.56;1644772;83;21116;-69
2022/08/25 05:26:29;;;;;;;5.78;2.83;;;;;;;29.94;32.35;100710.41;1643261;86;21019;-67
2022/08/25 05:28:57;;;;;;;5.67;3.37;;;;;;;30.00;32.14;100709.96;1629326;82;21063;-69
2022/08/25 05:31:26;;;;;;;8.95;2.77;;;;;;;29.79;32.44;100708.81;1642121;87;21023;-68
2022/08/25 05:33:54;;;;;;;5.00;2.80;;;;;;;29.72;32.58;100709.77;1649749;85;21645;-69
2022/08/25 05:36:22;;;;;;;2.92;2.70;;;;;;;29.57;32.66;100704.84;1637523;86;21483;-69
2022/08/25 05:38:49;;;;;;;4.00;2.98;;;;;;;29.48;33.04;100712.20;1649840;82;21053;-69
2022/08/25 05:41:20;;;;;;;4.80;3.00;;;;;;;29.50;32.95;100707.21;1641561;86;21512;-68
2022/08/25 05:43:49;;;;;;;5.50;3.10;;;;;;;29.59;32.86;100708.13;1618065;87;21053;-69
2022/08/25 05:46:18;;;;;;;7.75;2.92;;;;;;;29.59;33.28;100695.77;1623193;82;21125;-70
2022/08/25 05:48:45;;;;;;;8.58;2.87;;;;;;;29.75;32.72;100702.31;1651193;86;21969;-68
2022/08/25 05:51:13;;;;;;;4.47;3.08;;;;;;;29.99;32.50;100698.73;1671532;81;21156;-68
2022/08/25 05:53:44;;;;;;;5.53;2.95;;;;;;;29.90;32.55;100700.59;1717102;82;21079;-69
2022/08/25 05:56:12;;;;;;;3.90;3.35;;;;;;;29.81;32.57;100697.76;1669623;82;20990;-69
2022/08/25 05:58:41;;;;;;;4.08;3.12;;;;;;;29.70;32.91;100693.58;1648536;86;20972;-69
2022/08/25 06:03:53;;;;;;;3.00;2.62;;;;;;;29.56;32.81;100697.73;1641026;87;21495;-71
2022/08/25 06:06:21;;;;;;;4.12;3.40;;;;;;;29.63;32.85;100695.39;1671919;82;21068;-69
2022/08/25 06:08:49;;;;;;;7.33;3.20;;;;;;;29.74;32.75;100700.67;1692883;83;20996;-67
2022/08/25 06:11:15;;;;;;;5.35;3.45;;;;;;;29.89;32.59;100698.95;1697209;83;21532;-71
2022/08/25 06:13:42;;;;;;;5.25;3.60;;;;;;;30.02;32.33;100695.91;1691117;82;21043;-69
2022/08/25 06:16:08;;;;;;;10.90;3.35;;;;;;;29.94;32.38;100694.72;1674636;84;21067;-68
2022/08/25 06:18:34;;;;;;;8.55;3.20;;;;;;;29.96;32.95;100694.42;1622753;87;21584;-69
2022/08/25 06:21:13;;;;;;;5.87;3.20;;;;;;;30.11;32.41;100700.92;1692969;82;21089;-67
2022/08/25 06:24:26;;;;;;;6.60;3.62;;;;;;;30.18;32.19;100691.69;1717079;77;22871;-68
2022/08/25 06:26:54;;;;;;;9.33;3.92;;;;;;;30.26;32.41;100693.68;1685465;83;21092;-68
2022/08/25 06:29:20;;;;;;;4.37;3.25;;;;;;;30.42;32.15;100694.16;1664542;83;21070;-69
2022/08/25 06:31:48;;;;;;;4.20;3.15;;;;;;;30.61;32.29;100693.95;1652692;85;21049;-68
2022/08/25 06:34:18;;;;;;;7.05;3.62;;;;;;;30.76;31.29;100696.86;1639806;84;21132;-70
2022/08/25 06:36:44;;;;;;;4.10;3.62;;;;;;;30.51;31.73;100696.14;1641098;84;21098;-70
2022/08/25 06:39:11;;;;;;;6.95;3.85;;;;;;;30.24;32.19;100707.50;1678474;83;21487;-69
2022/08/25 06:41:38;;;;;;;5.28;3.72;;;;;;;30.24;32.35;100708.30;1684849;84;21551;-69
2022/08/25 06:44:05;;;;;;;4.05;2.72;;;;;;;30.35;32.53;100703.98;1681814;82;21011;-70
2022/08/25 06:46:31;;;;;;;5.72;4.15;;;;;;;30.47;32.05;100702.83;1741816;81;21030;-69
2022/08/25 06:48:57;;;;;;;8.00;3.30;;;;;;;30.42;32.12;100702.41;1718845;82;21564;-68
2022/08/25 06:51:26;;;;;;;6.92;4.33;;;;;;;30.48;32.00;100705.84;1737622;82;21060;-70
2022/08/25 06:53:53;;;;;;;10.50;3.35;;;;;;;30.54;32.06;100701.02;1721007;82;21009;-69
2022/08/25 06:56:21;;;;;;;4.55;2.55;;;;;;;30.55;31.08;100704.01;1713041;80;21005;-68
2022/08/25 06:58:47;;;;;;;7.70;2.10;;;;;;;30.40;30.64;100703.83;1713405;82;20992;-69
2022/08/25 07:01:21;;;;;;;8.68;3.12;;;;;;;30.21;31.17;100697.11;1706475;82;21054;-70
2022/08/25 07:03:49;;;;;;;4.67;3.98;;;;;;;30.16;30.28;100695.86;1730917;80;21057;-70
2022/08/25 07:06:20;;;;;;;5.67;3.00;;;;;;;30.16;30.43;100700.81;1761493;80;21497;-73
2022/08/25 07:08:47;;;;;;;4.15;3.08;;;;;;;30.08;30.65;100696.88;1742073;80;21009;-69
2022/08/25 07:11:15;;;;;;;5.47;3.30;;;;;;;30.04;30.83;100691.72;1749173;78;21037;-72
2022/08/25 07:13:42;;;;;;;4.15;3.30;;;;;;;30.03;31.89;100695.61;1758170;80;21572;-69
2022/08/25 07:16:12;;;;;;;4.03;3.70;;;;;;;30.05;32.07;100696.11;1752556;80;21127;-67
2022/08/25 07:18:40;;;;;;;6.12;3.65;;;;;;;29.88;32.63;100691.28;1744675;81;21020;-70
2022/08/25 07:21:06;;;;;;;9.50;3.83;;;;;;;29.69;32.32;100687.85;1758567;79;21518;-69
2022/08/25 07:23:34;;;;;;;9.45;4.05;;;;;;;29.44;32.48;100687.83;1752730;78;20989;-68
2022/08/25 07:26:11;;;;;;;9.83;4.17;;;;;;;29.24;32.83;100683.59;1750777;80;21065;-68
2022/08/25 07:28:37;;;;;;;4.83;3.30;;;;;;;29.18;33.58;100691.11;1747017;80;21056;-69
2022/08/25 07:31:05;;;;;;;9.48;4.03;;;;;;;29.18;34.18;100686.99;1733793;80;21773;-68
2022/08/25 07:33:31;;;;;;;3.62;3.12;;;;;;;29.05;33.61;100689.16;1709017;80;21041;-68
2022/08/25 07:35:58;;;;;;;6.50;3.15;;;;;;;28.92;33.33;100679.22;1686904;83;21026;-68
2022/08/25 07:38:24;;;;;;;4.72;2.27;;;;;;;28.89;31.58;100678.44;1673052;84;21114;-69
2022/08/25 07:40:54;;;;;;;11.97;4.03;;;;;;;28.80;31.84;100674.80;1710703;81;21103;-68
2022/08/25 07:43:21;;;;;;;9.80;2.55;;;;;;;28.78;31.86;100674.83;1731242;81;21052;-68
2022/08/25 07:45:47;;;;;;;3.58;2.80;;;;;;;28.76;31.51;100672.95;1722375;81;21005;-70
2022/08/25 07:48:14;;;;;;;7.58;1.87;;;;;;;28.70;30.86;100672.23;1715134;80;21651;-67
2022/08/25 07:50:44;;;;;;;6.12;1.90;;;;;;;28.59;31.09;100673.53;1693336;83;21005;-69
2022/08/25 07:53:13;;;;;;;3.35;2.02;;;;;;;28.52;30.84;100668.45;1694857;83;21057;-68
2022/08/25 07:55:40;;;;;;;3.65;1.75;;;;;;;28.51;30.93;100664.04;1670371;84;21091;-68
2022/08/25 07:58:09;;;;;;;8.40;2.83;;;;;;;28.52;31.28;100663.77;1729719;81;21076;-68
2022/08/25 08:00:40;;;;;;;12.73;2.75;;;;;;;28.50;31.57;100660.49;1734434;80;21041;-71
2022/08/25 08:03:08;;;;;;;8.33;2.20;;;;;;;28.54;31.46;100660.17;1745310;80;21085;-69
2022/08/25 08:05:35;;;;;;;6.70;2.40;;;;;;;28.64;31.37;100656.42;1744084;82;20962;-68
2022/08/25 08:08:03;;;;;;;3.08;2.33;;;;;;;28.77;31.44;100647.97;1747915;82;21036;-67
2022/08/25 08:10:29;;;;;;;9.75;1.90;;;;;;;28.83;30.93;100636.34;1747758;80;20998;-69
2022/08/25 08:12:56;;;;;;;7.40;1.75;;;;;;;28.90;30.49;100647.16;1753101;80;21081;-68
2022/08/25 08:15:23;;;;;;;5.60;1.75;;;;;;;28.89;30.64;100644.72;1752498;82;21054;-68
2022/08/25 08:17:51;;;;;;;5.10;1.82;;;;;;;28.96;30.59;100630.61;1745099;82;21046;-71
2022/08/25 08:20:17;;;;;;;4.42;1.80;;;;;;;29.04;30.60;100633.43;1671350;79;21128;-71
2022/08/25 08:22:44;;;;;;;4.53;1.52;;;;;;;29.11;30.75;100636.58;1662840;84;21061;-70
2022/08/25 08:25:11;;;;;;;5.60;1.72;;;;;;;29.23;29.83;100625.68;1655656;84;21082;-69
2022/08/25 08:27:38;;;;;;;3.50;1.55;;;;;;;29.32;29.65;100626.58;1670055;84;21111;-69
2022/08/25 08:30:06;;;;;;;2.98;1.72;;;;;;;29.34;29.71;100624.91;1652974;85;21087;-69
2022/08/25 08:32:33;;;;;;;10.45;2.27;;;;;;;29.36;29.70;100626.22;1676074;85;21067;-68
2022/08/25 08:34:59;;;;;;;5.95;1.82;;;;;;;29.41;29.82;100621.19;1713908;81;21614;-69
2022/08/25 08:37:26;;;;;;;5.58;1.35;;;;;;;29.46;29.82;100620.52;1725326;82;21048;-68
2022/08/25 08:39:52;;;;;;;3.55;2.40;;;;;;;29.46;29.79;100621.89;1725648;82;21059;-69
2022/08/25 08:42:52;;;;;;;2.20;1.75;;;;;;;29.47;29.96;100611.71;1726570;82;21015;-69
2022/08/25 08:45:25;;;;;;;3.08;1.80;;;;;;;29.52;30.24;100610.23;1677284;84;21024;-73
2022/08/25 08:48:06;;;;;;;2.37;1.72;;;;;;;29.62;30.63;100605.86;1667418;84;21090;-71
2022/08/25 08:51:08;;;;;;;5.17;2.10;;;;;;;29.67;30.46;100598.89;1668654;84;21090;-68
2022/08/25 08:53:55;;;;;;;5.92;1.67;;;;;;;29.72;29.79;100592.44;1721895;81;21187;-69
2022/08/25 08:56:33;;;;;;;1.02;1.02;;;;;;;29.76;29.96;100595.41;1725787;81;21075;-68
2022/08/25 08:59:24;;;;;;;1.98;0.93;;;;;;;29.86;29.58;100606.98;1710315;82;21525;-71
2022/08/25 09:02:00;;;;;;;5.28;0.80;;;;;;;30.02;27.77;100606.59;1698149;81;21581;-69
2022/08/25 09:04:48;;;;;;;4.40;0.90;;;;;;;30.15;26.97;100609.03;1705067;82;21107;-69
2022/08/25 09:07:35;;;;;;;1.67;1.20;;;;;;;30.21;26.94;100609.14;1673733;83;21077;-70
2022/08/25 09:10:03;;;;;;;;;;;;;;;30.25;27.06;100587.59;1652665;84;21147;-70
2022/08/25 09:12:53;;;;;;;3.65;1.00;;;;;;;30.30;27.16;100594.89;1691204;82;20138;-68
2022/08/25 09:18:52;;;;;;;1.98;1.37;;;;;;;30.34;27.08;100597.28;1645207;85;21105;-68
2022/08/25 09:21:48;;;;;;;2.25;1.10;;;;;;;30.38;27.34;100589.22;1633061;85;21032;-68
2022/08/25 09:24:36;;;;;;;14.07;1.15;;;;;;;30.43;27.12;100594.02;1729427;79;21025;-69
2022/08/25 09:27:17;;;;;;;2.98;0.95;;;;;;;30.45;26.47;100589.58;1747665;81;21021;-70
2022/08/25 09:30:17;;;;;;;4.00;0.82;;;;;;;30.50;26.20;100585.33;1689815;81;21176;-71
2022/08/25 09:32:52;;;;;;;5.75;0.70;;;;;;;30.56;25.90;100577.74;1686265;81;21158;-69
2022/08/25 09:35:26;;;;;;;6.40;0.72;;;;;;;30.59;25.37;100590.30;1698860;82;20997;-69
2022/08/25 09:38:02;;;;;;;3.52;0.85;;;;;;;30.59;25.29;100575.71;1688851;83;21849;-69
2022/08/25 09:40:34;;;;;;;0.85;0.40;;;;;;;30.60;25.80;100595.23;1639910;85;21028;-68
2022/08/25 09:43:04;;;;;;;3.22;0.50;;;;;;;30.63;25.73;100576.73;1671425;82;21038;-69
2022/08/25 09:45:44;;;;;;;3.75;0.45;;;;;;;30.71;24.86;100577.88;1680335;82;21000;-69
2022/08/25 09:48:25;;;;;;;5.78;0.70;;;;;;;30.78;24.48;100572.70;1667455;83;21251;-70
2022/08/25 09:50:59;;;;;;;4.05;0.40;;;;;;;30.85;24.71;100564.25;1682009;84;21025;-69
2022/08/25 09:53:28;;;;;;;4.43;0.80;;;;;;;30.99;24.45;100575.73;1672411;83;21094;-69
2022/08/25 09:56:05;;;;;;;6.55;0.53;;;;;;;31.06;24.36;100565.03;1687217;83;21022;-69
2022/08/25 09:58:33;;;;;;;4.00;0.37;;;;;;;31.10;23.64;100566.03;1740952;80;21187;-70
2022/08/25 10:01:04;;;;;;;1.60;0.33;;;;;;;31.09;22.84;100580.92;1757350;81;21053;-71
2022/08/25 10:03:31;;;;;;;2.95;0.30;;;;;;;31.08;22.54;100551.78;1743058;81;20984;-69
2022/08/25 10:06:12;;;;;;;1.50;0.40;;;;;;;31.09;22.90;100556.14;1752112;79;21588;-68
2022/08/25 10:08:50;;;;;;;2.02;0.62;;;;;;;31.12;23.00;100544.50;1751068;80;21041;-71
2022/08/25 10:11:42;;;;;;;3.60;0.40;;;;;;;31.19;23.04;100526.11;1734912;80;21060;-69
2022/08/25 10:14:33;;;;;;;1.92;0.20;;;;;;;31.29;22.72;100526.34;1757211;80;21705;-69
2022/08/25 10:17:31;;;;;;;5.20;0.45;;;;;;;31.42;22.40;100533.09;1745617;80;21086;-71
2022/08/25 10:20:20;;;;;;;6.42;0.78;;;;;;;31.53;22.26;100530.86;1738554;80;21157;-68
2022/08/25 10:22:48;;;;;;;2.85;0.30;;;;;;;31.60;22.30;100526.22;1747175;80;21059;-68
2022/08/25 10:25:23;;;;;;;1.07;0.30;;;;;;;31.66;22.45;100547.52;1718899;82;21120;-70
2022/08/25 10:28:16;;;;;;;3.50;0.40;;;;;;;31.68;22.16;100542.50;1708885;80;21097;-69
2022/08/25 10:30:57;;;;;;;2.12;0.30;;;;;;;31.67;21.94;100539.52;1695659;83;21101;-70
2022/08/25 10:33:59;;;;;;;5.28;0.40;;;;;;;31.63;21.97;100529.14;1727119;79;21035;-69
2022/08/25 10:36:54;;;;;;;3.58;0.60;;;;;;;31.66;21.03;100533.75;1725992;81;21033;-70
2022/08/25 10:39:41;;;;;;;3.20;0.20;;;;;;;31.74;20.14;100524.65;1757538;80;21160;-70
2022/08/25 10:42:33;;;;;;;1.82;0.47;;;;;;;31.84;20.26;100533.17;1759737;79;21061;-69
2022/08/25 10:48:23;;;;;;;0.78;0.20;;;;;;;32.05;20.00;100520.90;1762470;80;21647;-71
2022/08/25 10:51:30;;;;;;;3.70;0.20;;;;;;;32.00;20.01;100521.29;1769782;79;21076;-70
2022/08/25 10:54:18;;;;;;;1.02;0.20;;;;;;;31.93;20.27;100515.47;1751862;79;21116;-68
2022/08/25 10:56:56;;;;;;;1.10;0.60;;;;;;;31.88;20.56;100503.23;1749833;79;21096;-71
2022/08/25 10:59:33;;;;;;;2.47;0.20;;;;;;;31.97;20.60;100509.53;1729873;79;21089;-71
2022/08/25 11:02:39;;;;;;;1.02;0.30;;;;;;;32.04;20.61;100509.04;1719915;80;21008;-69
2022/08/25 11:05:29;;;;;;;2.15;0.42;;;;;;;32.04;20.55;100515.13;1722294;81;21048;-68
2022/08/25 11:08:29;;;;;;;1.70;0.40;;;;;;;32.04;20.84;100491.12;1747708;79;21611;-70
2022/08/25 11:11:07;;;;;;;11.05;0.60;;;;;;;32.14;20.75;100513.41;1747502;81;20978;-69
2022/08/25 11:13:49;;;;;;;1.55;0.53;;;;;;;32.23;20.61;100509.22;1671993;82;21039;-69
2022/08/25 11:16:33;;;;;;;0.57;0.30;;;;;;;32.27;20.51;100490.32;1666132;84;21086;-69
2022/08/25 11:19:25;;;;;;;1.03;0.37;;;;;;;32.27;20.51;100490.87;1746962;80;21057;-72
2022/08/25 11:22:12;;;;;;;2.30;0.47;;;;;;;32.27;20.51;100490.87;1763724;80;21447;-69
2022/08/25 11:25:08;;;;;;;1.85;0.25;;;;;;;32.23;20.73;100494.89;1765720;80;21156;-71
2022/08/25 11:27:57;;;;;;;4.33;0.40;;;;;;;32.12;20.96;100500.53;1748094;81;21489;-69
2022/08/25 11:30:24;;;;;;;1.12;0.72;;;;;;;32.01;20.68;100498.08;1710723;81;21030;-70
2022/08/25 11:32:53;;;;;;;1.20;0.40;;;;;;;31.94;20.64;100503.28;1691825;83;21058;-69
2022/08/25 11:35:40;;;;;;;0.68;0.33;;;;;;;31.88;20.84;100483.94;1676228;83;21218;-70
2022/08/25 11:38:47;;;;;;;2.37;0.30;;;;;;;31.86;21.06;100487.59;1709215;80;21089;-69
2022/08/25 11:41:24;;;;;;;2.40;0.60;;;;;;;31.88;21.09;100473.49;1731913;80;21588;-69
2022/08/25 11:44:02;;;;;;;3.60;0.50;;;;;;;31.89;21.28;100492.46;1721474;82;21021;-69
2022/08/25 11:47:00;;;;;;;5.45;0.70;;;;;;;31.91;21.44;100464.55;1698398;82;21141;-70
2022/08/25 11:50:02;;;;;;;1.30;0.30;;;;;;;31.95;21.47;100493.09;1666182;84;21077;-71
2022/08/25 11:52:44;;;;;;;0.93;0.40;;;;;;;31.95;21.32;100487.58;1706750;81;21163;-69
2022/08/25 11:55:37;;;;;;;1.00;0.30;;;;;;;31.90;21.59;100478.91;1701684;81;21032;-68
2022/08/25 11:58:39;;;;;;;3.12;0.40;;;;;;;31.87;21.54;100468.52;1717493;81;21053;-69
2022/08/25 12:01:10;;;;;;;1.22;0.40;;;;;;;31.82;21.68;100454.95;1726289;78;21542;-69
2022/08/25 12:03:42;;;;;;;2.98;0.90;;;;;;;31.77;20.98;100478.53;1746649;81;21045;-69